createdAt,value
2018-11-28T00:00:38.381Z,15.33
2018-11-28T00:03:12.591Z,18.07
2018-11-28T00:05:46.808Z,18.00
2018-11-28T00:08:21.208Z,19.83
2018-11-28T00:10:55.488Z,18.33
2018-11-28T00:13:29.868Z,18.77
2018-11-28T00:16:04.208Z,19.03
2018-11-28T00:18:38.579Z,17.00
2018-11-28T00:21:12.838Z,18.27
2018-11-28T00:23:47.164Z,16.63
2018-11-28T00:26:21.465Z,21.10
2018-11-28T00:28:55.869Z,17.93
2018-11-28T00:31:30.296Z,18.20
2018-11-28T00:34:04.920Z,19.10
2018-11-28T00:36:39.210Z,19.77
2018-11-28T00:39:13.488Z,20.87
2018-11-28T00:41:47.705Z,17.60
2018-11-28T00:44:22.109Z,18.47
2018-11-28T00:46:56.413Z,20.47
2018-11-28T00:49:30.816Z,19.57
2018-11-28T00:52:05.228Z,19.77
2018-11-28T00:54:39.380Z,19.90
2018-11-28T00:57:13.683Z,19.03
2018-11-28T00:59:47.864Z,21.50
2018-11-28T01:02:22.009Z,18.60
2018-11-28T01:04:56.340Z,17.27
2018-11-28T01:07:30.664Z,18.27
2018-11-28T01:10:08.338Z,19.03
2018-11-28T01:12:42.733Z,19.87
2018-11-28T01:15:17.719Z,18.63
2018-11-28T01:17:52.221Z,20.60
2018-11-28T01:20:26.465Z,18.33
2018-11-28T01:23:00.732Z,20.93
2018-11-28T01:25:34.984Z,19.87
2018-11-28T01:28:09.441Z,20.27
2018-11-28T01:30:43.637Z,20.57
2018-11-28T01:33:18.012Z,22.30
2018-11-28T01:35:52.288Z,20.77
2018-11-28T01:38:26.624Z,20.00
2018-11-28T01:41:00.935Z,22.07
2018-11-28T01:43:35.260Z,22.13
2018-11-28T01:46:09.579Z,19.93
2018-11-28T01:48:43.840Z,19.67
2018-11-28T01:51:18.113Z,21.63
2018-11-28T01:53:52.467Z,22.53
2018-11-28T01:56:26.740Z,22.00
2018-11-28T01:59:00.950Z,19.67
2018-11-28T02:01:35.232Z,20.90
2018-11-28T02:04:09.668Z,22.60
2018-11-28T02:06:43.988Z,18.67
2018-11-28T02:09:18.365Z,22.43
2018-11-28T02:11:52.541Z,20.83
2018-11-28T02:14:26.696Z,20.90
2018-11-28T02:17:00.986Z,19.30
2018-11-28T02:19:35.468Z,19.50
2018-11-28T02:22:09.779Z,23.67
2018-11-28T02:24:43.988Z,19.43
2018-11-28T02:27:18.244Z,21.70
2018-11-28T02:29:52.703Z,22.33
2018-11-28T02:32:27.008Z,23.10
2018-11-28T02:35:01.283Z,19.53
2018-11-28T02:37:35.571Z,21.23
2018-11-28T02:40:13.884Z,23.47
2018-11-28T02:42:48.964Z,22.13
2018-11-28T02:45:23.311Z,19.63
2018-11-28T02:47:57.611Z,19.87
2018-11-28T02:50:31.971Z,23.33
2018-11-28T02:53:06.330Z,22.77
2018-11-28T02:55:40.800Z,21.63
2018-11-28T02:58:15.056Z,20.43
2018-11-28T03:00:49.415Z,20.17
2018-11-28T03:03:23.741Z,22.73
2018-11-28T03:05:57.968Z,23.23
2018-11-28T03:08:32.124Z,22.10
2018-11-28T03:11:06.481Z,20.60
2018-11-28T03:13:40.881Z,23.60
2018-11-28T03:16:18.479Z,25.47
2018-11-28T03:18:52.640Z,20.73
2018-11-28T03:21:27.048Z,22.97
2018-11-28T03:24:01.429Z,21.30
2018-11-28T03:26:35.721Z,22.50
2018-11-28T03:29:10.025Z,25.53
2018-11-28T03:31:44.429Z,21.77
2018-11-28T03:34:18.664Z,21.57
2018-11-28T03:36:53.065Z,20.43
2018-11-28T03:39:27.383Z,24.40
2018-11-28T03:42:01.657Z,21.80
2018-11-28T03:44:36.024Z,21.10
2018-11-28T03:47:10.389Z,22.33
2018-11-28T03:49:44.788Z,22.50
2018-11-28T03:52:19.092Z,20.87
2018-11-28T03:54:53.349Z,21.47
2018-11-28T03:57:27.678Z,24.33
2018-11-28T04:00:01.979Z,24.07
2018-11-28T04:02:36.232Z,25.20
2018-11-28T04:05:11.180Z,23.77
2018-11-28T04:07:45.411Z,24.07
2018-11-28T04:10:19.648Z,26.03
2018-11-28T04:12:53.928Z,22.67
2018-11-28T04:15:28.108Z,23.63
2018-11-28T04:18:02.326Z,21.57
2018-11-28T04:20:36.621Z,22.33
2018-11-28T04:23:10.889Z,20.90
2018-11-28T04:25:45.246Z,23.20
2018-11-28T04:28:19.596Z,21.63
2018-11-28T04:30:54.020Z,22.23
2018-11-28T04:33:28.432Z,24.17
2018-11-28T04:36:02.737Z,22.50
2018-11-28T04:38:37.192Z,23.20
2018-11-28T04:41:11.585Z,21.90
2018-11-28T04:43:45.836Z,20.20
2018-11-28T04:46:19.995Z,25.33
2018-11-28T04:48:54.271Z,22.37
2018-11-28T04:51:28.476Z,22.97
2018-11-28T04:54:02.753Z,23.67
2018-11-28T04:56:37.180Z,23.30
2018-11-28T04:59:11.460Z,24.37
2018-11-28T05:01:45.864Z,21.27
2018-11-28T05:04:20.148Z,23.80
2018-11-28T05:07:57.387Z,21.53
2018-11-28T05:10:31.619Z,21.87
2018-11-28T05:13:05.941Z,21.57
2018-11-28T05:15:40.292Z,28.42
2018-11-28T05:18:14.489Z,23.03
2018-11-28T05:20:48.749Z,24.97
2018-11-28T05:23:23.033Z,24.87
2018-11-28T05:25:58.173Z,23.13
2018-11-28T05:28:32.464Z,22.83
2018-11-28T05:31:06.892Z,24.63
2018-11-28T05:33:41.036Z,23.00
2018-11-28T05:36:15.424Z,22.87
2018-11-28T05:38:49.693Z,25.37
2018-11-28T05:41:24.012Z,22.63
2018-11-28T05:43:58.332Z,23.73
2018-11-28T05:46:32.557Z,22.40
2018-11-28T05:49:06.863Z,22.63
2018-11-28T05:51:41.017Z,26.20
2018-11-28T05:54:15.299Z,26.47
2018-11-28T05:56:49.676Z,25.93
2018-11-28T05:59:27.290Z,24.37
2018-11-28T06:01:58.377Z,25.97
2018-11-28T06:04:32.676Z,21.60
2018-11-28T06:07:06.871Z,24.47
2018-11-28T06:09:41.100Z,21.87
2018-11-28T06:12:15.395Z,28.40
2018-11-28T06:14:49.701Z,25.40
2018-11-28T06:17:23.988Z,28.27
2018-11-28T06:19:58.329Z,24.10
2018-11-28T06:22:32.560Z,24.93
2018-11-28T06:25:15.633Z,21.50
2018-11-28T06:27:42.937Z,21.03
2018-11-28T06:30:19.120Z,25.15
2018-11-28T06:32:53.276Z,23.03
2018-11-28T06:35:27.580Z,21.17
2018-11-28T06:38:01.852Z,21.40
2018-11-28T06:40:36.090Z,23.67
2018-11-28T06:43:10.440Z,22.47
2018-11-28T06:45:44.564Z,23.13
2018-11-28T06:48:18.749Z,23.77
2018-11-28T06:50:53.049Z,21.60
2018-11-28T06:53:27.327Z,20.43
2018-11-28T06:56:01.580Z,23.43
2018-11-28T06:58:35.933Z,18.33
2018-11-28T07:01:10.336Z,21.37
2018-11-28T07:03:44.511Z,22.63
2018-11-28T07:06:18.777Z,23.57
2018-11-28T07:08:53.412Z,25.10
2018-11-28T07:11:27.625Z,20.63
2018-11-28T07:14:02.028Z,23.73
2018-11-28T07:16:36.254Z,23.60
2018-11-28T07:19:11.375Z,23.43
2018-11-28T07:21:45.744Z,20.97
2018-11-28T07:24:20.044Z,21.33
2018-11-28T07:26:54.267Z,19.33
2018-11-28T07:29:28.525Z,21.53
2018-11-28T07:32:02.839Z,23.40
2018-11-28T07:34:37.051Z,18.53
2018-11-28T07:37:11.350Z,21.67
2018-11-28T07:39:45.538Z,26.73
2018-11-28T07:42:19.782Z,28.40
2018-11-28T07:44:53.956Z,32.67
2018-11-28T07:47:28.140Z,25.07
2018-11-28T07:50:02.466Z,23.97
2018-11-28T07:52:36.904Z,24.20
2018-11-28T07:55:11.531Z,21.07
2018-11-28T07:57:45.828Z,20.43
2018-11-28T08:00:19.964Z,20.10
2018-11-28T08:02:54.268Z,20.73
2018-11-28T08:05:28.461Z,24.93
2018-11-28T08:08:02.790Z,26.23
2018-11-28T08:10:37.220Z,25.20
2018-11-28T08:13:11.590Z,21.80
2018-11-28T08:15:46.000Z,22.63
2018-11-28T08:18:20.224Z,23.67
2018-11-28T08:20:54.636Z,21.47
2018-11-28T08:23:29.117Z,23.50
2018-11-28T08:26:03.436Z,18.53
2018-11-28T08:28:37.742Z,22.87
2018-11-28T08:31:11.968Z,18.90
2018-11-28T08:33:46.478Z,21.70
2018-11-28T08:36:20.720Z,20.00
2018-11-28T08:38:54.928Z,20.83
2018-11-28T08:41:29.184Z,21.07
2018-11-28T08:44:03.443Z,20.30
2018-11-28T08:46:37.820Z,22.87
2018-11-28T08:49:12.071Z,21.17
2018-11-28T08:51:46.299Z,22.23
2018-11-28T08:54:20.733Z,23.70
2018-11-28T08:56:54.952Z,22.93
2018-11-28T08:59:29.332Z,20.07
2018-11-28T09:02:03.589Z,21.57
2018-11-28T09:04:37.864Z,21.30
2018-11-28T09:07:12.097Z,20.63
2018-11-28T09:09:46.451Z,21.57
2018-11-28T09:12:20.725Z,18.80
2018-11-28T09:14:55.008Z,20.37
2018-11-28T09:17:29.340Z,24.70
2018-11-28T09:20:04.735Z,22.00
2018-11-28T09:22:39.120Z,21.63
2018-11-28T09:25:15.316Z,20.70
2018-11-28T09:27:52.492Z,20.37
2018-11-28T09:30:26.828Z,18.90
2018-11-28T09:33:01.132Z,21.27
2018-11-28T09:35:35.533Z,22.80
2018-11-28T09:38:09.804Z,22.10
2018-11-28T09:40:44.112Z,20.63
2018-11-28T09:43:18.273Z,19.17
2018-11-28T09:45:52.719Z,21.03
2018-11-28T09:48:27.060Z,17.20
2018-11-28T09:51:01.213Z,19.07
2018-11-28T09:53:35.475Z,19.37
2018-11-28T09:56:09.752Z,17.17
2018-11-28T09:58:44.156Z,18.97
2018-11-28T10:01:18.481Z,19.83
2018-11-28T10:03:52.808Z,19.53
2018-11-28T10:07:33.813Z,17.67
2018-11-28T10:10:11.015Z,20.07
2018-11-28T10:12:46.664Z,21.10
2018-11-28T10:15:25.382Z,17.27
2018-11-28T10:17:59.736Z,17.57
2018-11-28T10:20:33.996Z,17.67
2018-11-28T10:23:08.330Z,20.33
2018-11-28T10:25:42.655Z,17.50
2018-11-28T10:28:16.892Z,17.33
2018-11-28T10:30:51.146Z,18.40
2018-11-28T10:33:25.453Z,17.33
2018-11-28T10:35:59.800Z,17.77
2018-11-28T10:38:34.124Z,17.83
2018-11-28T10:41:08.554Z,18.00
2018-11-28T10:43:42.752Z,19.93
2018-11-28T10:46:17.064Z,19.33
2018-11-28T10:48:51.288Z,18.63
2018-11-28T10:51:25.632Z,19.63
2018-11-28T10:53:59.901Z,18.70
2018-11-28T10:56:34.181Z,16.97
2018-11-28T10:59:08.641Z,17.17
2018-11-28T11:01:48.368Z,17.80
2018-11-28T11:04:25.696Z,18.80
2018-11-28T11:07:05.368Z,19.13
2018-11-28T11:09:44.863Z,16.67
2018-11-28T11:13:26.664Z,16.47
2018-11-28T11:16:00.896Z,19.17
2018-11-28T11:18:35.221Z,17.13
2018-11-28T11:21:09.960Z,18.60
2018-11-28T11:23:43.744Z,19.23
2018-11-28T11:26:17.928Z,15.20
2018-11-28T11:28:52.160Z,18.93
2018-11-28T11:31:26.395Z,20.10
2018-11-28T11:34:00.584Z,17.67
2018-11-28T11:36:34.867Z,16.77
2018-11-28T11:39:09.141Z,16.20
2018-11-28T11:41:43.469Z,18.57
2018-11-28T11:44:17.673Z,17.17
2018-11-28T11:46:52.059Z,17.43
2018-11-28T11:49:26.256Z,16.73
2018-11-28T11:52:00.537Z,19.47
2018-11-28T11:54:34.873Z,16.40
2018-11-28T11:57:09.245Z,23.37
2018-11-28T11:59:43.490Z,19.50
2018-11-28T12:02:17.809Z,18.50
2018-11-28T12:04:52.005Z,16.73
2018-11-28T12:07:26.503Z,18.47
2018-11-28T12:10:00.729Z,15.10
2018-11-28T12:12:35.005Z,17.37
2018-11-28T12:15:13.125Z,18.10
2018-11-28T12:17:48.429Z,14.90
2018-11-28T12:20:34.638Z,17.27
2018-11-28T12:23:08.963Z,17.40
2018-11-28T12:25:43.220Z,18.17
2018-11-28T12:28:17.496Z,16.87
2018-11-28T12:30:51.878Z,16.93
2018-11-28T12:33:26.160Z,17.97
2018-11-28T12:36:00.481Z,19.33
2018-11-28T12:38:34.684Z,16.47
2018-11-28T12:41:08.981Z,17.00
2018-11-28T12:43:43.268Z,16.63
2018-11-28T12:46:17.533Z,18.73
2018-11-28T12:48:51.824Z,16.23
2018-11-28T12:51:26.049Z,19.00
2018-11-28T12:54:00.385Z,15.57
2018-11-28T12:56:34.540Z,18.70
2018-11-28T12:59:08.746Z,17.33
2018-11-28T13:01:43.023Z,16.53
2018-11-28T13:04:17.277Z,16.27
2018-11-28T13:06:51.617Z,17.00
2018-11-28T13:09:25.790Z,21.93
2018-11-28T13:12:00.241Z,16.37
2018-11-28T13:14:34.482Z,19.13
2018-11-28T13:17:08.842Z,17.93
2018-11-28T13:19:43.270Z,18.03
2018-11-28T13:22:17.473Z,16.37
2018-11-28T13:24:52.094Z,17.63
2018-11-28T13:27:26.373Z,17.07
2018-11-28T13:30:00.858Z,17.27
2018-11-28T13:32:35.140Z,17.07
2018-11-28T13:35:10.053Z,17.23
2018-11-28T13:37:45.384Z,18.77
2018-11-28T13:40:20.230Z,17.77
2018-11-28T13:42:54.552Z,17.30
2018-11-28T13:45:31.320Z,17.97
2018-11-28T13:48:05.800Z,16.97
2018-11-28T13:50:39.989Z,17.17
2018-11-28T13:53:16.745Z,18.13
2018-11-28T13:56:57.350Z,16.60
2018-11-28T13:58:26.797Z,14.43
2018-11-28T14:01:01.248Z,17.03
2018-11-28T14:03:35.540Z,16.37
2018-11-28T14:06:09.857Z,18.67
2018-11-28T14:08:44.053Z,17.03
2018-11-28T14:11:18.363Z,18.90
2018-11-28T14:13:52.669Z,18.27
2018-11-28T14:16:26.968Z,18.70
2018-11-28T14:19:01.291Z,18.50
2018-11-28T14:21:35.689Z,19.63
2018-11-28T14:24:09.860Z,16.83
2018-11-28T14:26:44.176Z,18.13
2018-11-28T14:29:18.524Z,20.90
2018-11-28T14:31:52.884Z,24.00
2018-11-28T14:34:27.127Z,18.60
2018-11-28T14:37:01.440Z,16.23
2018-11-28T14:39:35.769Z,19.47
2018-11-28T14:42:10.245Z,19.07
2018-11-28T14:44:44.534Z,17.20
2018-11-28T14:47:18.876Z,17.40
2018-11-28T14:49:53.059Z,18.03
2018-11-28T14:52:27.359Z,15.00
2018-11-28T14:55:01.711Z,19.80
2018-11-28T14:57:35.873Z,20.90
2018-11-28T15:00:15.561Z,19.80
2018-11-28T15:02:51.008Z,13.77
2018-11-28T15:05:32.280Z,19.57
2018-11-28T15:08:10.808Z,19.43
2018-11-28T15:10:51.793Z,18.30
2018-11-28T15:13:26.166Z,16.20
2018-11-28T15:16:00.351Z,17.27
2018-11-28T15:18:34.656Z,17.20
2018-11-28T15:21:10.712Z,17.40
2018-11-28T15:23:45.028Z,16.03
2018-11-28T15:26:19.381Z,17.47
2018-11-28T15:28:53.717Z,18.40
2018-11-28T15:31:27.964Z,17.83
2018-11-28T15:34:02.249Z,20.07
2018-11-28T15:36:36.447Z,16.23
2018-11-28T15:39:10.814Z,19.50
2018-11-28T15:41:45.068Z,18.10
2018-11-28T15:44:19.959Z,17.13
2018-11-28T15:47:00.778Z,19.10
2018-11-28T15:49:35.068Z,16.17
2018-11-28T15:52:09.320Z,19.37
2018-11-28T15:54:43.808Z,20.77
2018-11-28T15:57:18.008Z,17.17
2018-11-28T15:59:52.352Z,16.67
2018-11-28T16:02:26.659Z,15.70
2018-11-28T16:05:00.964Z,16.50
2018-11-28T16:07:35.272Z,17.97
2018-11-28T16:10:16.536Z,15.93
2018-11-28T16:12:50.933Z,18.87
2018-11-28T16:15:30.115Z,16.30
2018-11-28T16:18:04.364Z,16.17
2018-11-28T16:20:38.620Z,17.13
2018-11-28T16:23:12.948Z,16.33
2018-11-28T16:25:47.230Z,14.80
2018-11-28T16:28:21.386Z,14.70
2018-11-28T16:30:55.655Z,16.17
2018-11-28T16:33:30.017Z,15.87
2018-11-28T16:36:04.332Z,17.27
2018-11-28T16:38:38.673Z,16.17
2018-11-28T16:41:13.013Z,17.00
2018-11-28T16:43:47.328Z,17.40
2018-11-28T16:46:21.564Z,16.00
2018-11-28T16:48:55.884Z,16.33
2018-11-28T16:51:30.089Z,15.97
2018-11-28T16:54:04.312Z,14.87
2018-11-28T16:56:38.600Z,20.60
2018-11-28T16:59:13.024Z,15.97
2018-11-28T17:01:47.313Z,17.23
2018-11-28T17:04:21.660Z,19.47
2018-11-28T17:06:55.788Z,18.90
2018-11-28T17:09:30.068Z,16.90
2018-11-28T17:12:04.484Z,19.95
2018-11-28T17:14:38.644Z,16.00
2018-11-28T17:17:12.941Z,16.87
2018-11-28T17:19:47.176Z,15.50
2018-11-28T17:22:21.384Z,16.90
2018-11-28T17:24:55.712Z,14.77
2018-11-28T17:27:29.931Z,15.83
2018-11-28T17:30:04.824Z,15.33
2018-11-28T17:32:38.995Z,15.23
2018-11-28T17:35:13.961Z,16.77
2018-11-28T17:37:48.204Z,14.17
2018-11-28T17:40:23.832Z,15.73
2018-11-28T17:42:59.084Z,18.20
2018-11-28T17:45:33.320Z,16.07
2018-11-28T17:48:07.668Z,15.27
2018-11-28T17:50:41.915Z,15.37
2018-11-28T17:53:16.099Z,14.43
2018-11-28T17:55:52.846Z,15.07
2018-11-28T17:58:27.093Z,14.43
2018-11-28T18:01:01.616Z,13.83
2018-11-28T18:03:35.953Z,15.93
2018-11-28T18:06:10.301Z,14.90
2018-11-28T18:08:44.449Z,13.97
2018-11-28T18:11:18.592Z,16.47
2018-11-28T18:13:52.782Z,17.53
2018-11-28T18:16:29.473Z,16.30
2018-11-28T18:19:01.467Z,14.33
2018-11-28T18:21:35.921Z,16.07
2018-11-28T18:24:10.211Z,18.27
2018-11-28T18:26:44.529Z,17.77
2018-11-28T18:29:18.828Z,15.73
2018-11-28T18:31:53.649Z,13.73
2018-11-28T18:34:28.232Z,17.37
2018-11-28T18:37:02.881Z,15.93
2018-11-28T18:39:38.429Z,15.10
2018-11-28T18:42:15.010Z,17.37
2018-11-28T18:44:49.596Z,18.63
2018-11-28T18:47:23.921Z,16.93
2018-11-28T18:49:58.320Z,16.73
2018-11-28T18:52:32.871Z,18.23
2018-11-28T18:55:16.395Z,15.30
2018-11-28T18:57:45.451Z,18.20
2018-11-28T19:00:20.780Z,18.73
2018-11-28T19:02:55.776Z,16.93
2018-11-28T19:05:30.185Z,16.87
2018-11-28T19:08:05.061Z,15.87
2018-11-28T19:10:39.472Z,17.10
2018-11-28T19:13:14.264Z,18.60
2018-11-28T19:15:48.643Z,15.93
2018-11-28T19:18:23.023Z,15.50
2018-11-28T19:20:57.400Z,16.03
2018-11-28T19:23:31.744Z,17.23
2018-11-28T19:26:06.376Z,16.40
2018-11-28T19:28:40.765Z,15.47
2018-11-28T19:31:15.152Z,18.43
2018-11-28T19:33:49.564Z,17.53
2018-11-28T19:36:23.905Z,14.60
2018-11-28T19:38:58.240Z,19.90
2018-11-28T19:41:32.560Z,17.13
2018-11-28T19:44:06.965Z,16.87
2018-11-28T19:46:41.213Z,16.03
2018-11-28T19:49:15.578Z,13.87
2018-11-28T19:51:49.840Z,17.10
2018-11-28T19:54:24.007Z,15.83
2018-11-28T19:56:58.356Z,17.60
2018-11-28T19:59:32.788Z,13.77
2018-11-28T20:02:07.186Z,18.07
2018-11-28T20:04:41.501Z,17.37
2018-11-28T20:07:15.801Z,18.37
2018-11-28T20:09:54.236Z,19.03
2018-11-28T20:12:28.420Z,17.60
2018-11-28T20:15:02.941Z,17.73
2018-11-28T20:17:37.384Z,15.10
2018-11-28T20:20:12.753Z,15.80
2018-11-28T20:22:47.005Z,18.77
2018-11-28T20:25:22.676Z,17.47
2018-11-28T20:27:59.905Z,16.27
2018-11-28T20:30:36.164Z,17.37
2018-11-28T20:33:10.782Z,16.90
2018-11-28T20:35:46.317Z,18.13
2018-11-28T20:38:24.132Z,17.13
2018-11-28T20:40:58.276Z,17.50
2018-11-28T20:43:32.596Z,16.13
2018-11-28T20:46:07.117Z,17.67
2018-11-28T20:48:41.344Z,21.00
2018-11-28T20:51:15.616Z,17.40
2018-11-28T20:53:49.972Z,16.53
2018-11-28T20:56:24.324Z,18.43
2018-11-28T20:58:58.571Z,18.67
2018-11-28T21:01:32.780Z,17.63
2018-11-28T21:04:07.157Z,20.03
2018-11-28T21:06:41.476Z,16.67
2018-11-28T21:09:15.880Z,21.23
2018-11-28T21:11:50.116Z,15.60
2018-11-28T21:14:24.273Z,19.53
2018-11-28T21:16:58.544Z,20.67
2018-11-28T21:19:32.860Z,20.80
2018-11-28T21:22:07.176Z,19.30
2018-11-28T21:24:41.383Z,23.60
2018-11-28T21:27:15.646Z,20.30
2018-11-28T21:29:50.076Z,19.53
2018-11-28T21:32:24.265Z,18.17
2018-11-28T21:34:58.708Z,20.10
2018-11-28T21:37:33.076Z,19.53
2018-11-28T21:40:07.769Z,19.13
2018-11-28T21:42:42.112Z,19.77
2018-11-28T21:45:17.385Z,16.87
2018-11-28T21:47:51.645Z,19.47
2018-11-28T21:50:25.848Z,20.93
2018-11-28T21:53:00.112Z,19.20
2018-11-28T21:55:34.432Z,19.83
2018-11-28T21:58:08.712Z,16.77
2018-11-28T22:00:43.091Z,18.60
2018-11-28T22:03:17.368Z,21.50
2018-11-28T22:05:51.763Z,18.60
2018-11-28T22:08:26.004Z,17.90
2018-11-28T22:11:00.404Z,18.57
2018-11-28T22:13:34.675Z,21.70
2018-11-28T22:16:08.849Z,20.27
2018-11-28T22:18:43.161Z,20.37
2018-11-28T22:21:17.392Z,21.20
2018-11-28T22:23:51.668Z,18.90
2018-11-28T22:26:25.994Z,19.27
2018-11-28T22:29:00.291Z,18.17
2018-11-28T22:31:34.614Z,17.93
2018-11-28T22:34:08.903Z,18.60
2018-11-28T22:36:43.168Z,18.00
2018-11-28T22:39:17.356Z,20.97
2018-11-28T22:41:51.815Z,19.43
2018-11-28T22:44:26.183Z,18.47
2018-11-28T22:47:00.445Z,16.53
2018-11-28T22:49:34.752Z,20.30
2018-11-28T22:52:09.051Z,18.73
2018-11-28T22:54:43.352Z,19.97
2018-11-28T22:57:17.617Z,20.47
2018-11-28T22:59:51.784Z,20.60
2018-11-28T23:02:38.265Z,18.80
2018-11-28T23:05:12.564Z,19.30
2018-11-28T23:07:46.848Z,21.53
2018-11-28T23:10:21.181Z,20.23
2018-11-28T23:12:55.432Z,17.57
2018-11-28T23:15:29.582Z,19.83
2018-11-28T23:18:03.829Z,19.57
2018-11-28T23:20:38.155Z,20.27
2018-11-28T23:23:12.545Z,19.13
2018-11-28T23:25:46.848Z,17.87
2018-11-28T23:28:21.168Z,17.07
2018-11-28T23:30:55.480Z,19.10
2018-11-28T23:33:29.639Z,18.97
2018-11-28T23:36:04.000Z,18.00
2018-11-28T23:38:38.266Z,19.07
2018-11-28T23:41:12.720Z,20.37
2018-11-28T23:43:46.971Z,18.47
2018-11-28T23:46:21.249Z,20.30
2018-11-28T23:48:55.480Z,16.73
2018-11-28T23:51:29.664Z,20.00
2018-11-28T23:54:03.890Z,18.03
2018-11-28T23:56:38.240Z,18.43
2018-11-28T23:59:12.492Z,18.87
